New Orleans Nas Jrb,Alvin Callender Field, Airport New Orleans US
ICAO: KNBG
IATA: NBG
Category: Medium
Scheduled Services: No

Elevation: 2 ft
TransAlt. 18000 ft.

Airport Communications:
APP/DEP:123.85
ATIS:27.62
NAVY NEW ORLEANS GND:121.6
USCG NEW ORLEANS AIR:38.18
BASE OPS:37.915
PMSV METRO:26.58
NAVY NEW ORLEANS TWR:123.8

KNBG Zoom In..

If you have problems with the map follow the link
https://www.worldairports.se/pages/airport.php?
ICAO=KNBG

Runways:

(A) RW 04 length 10000 ft width 200 ft
ILS 109.50 / hdg 44

(B) RW 14 length 6000 ft width 200 ft
---- / hdg 141

(C) RW 22 length 10000 ft width 200 ft
---- / hdg 224

(D) RW 32 length 6000 ft width 200 ft
---- / hdg 321

Location; KNBG
Day. 22 / Time. 16.11 Zulu
* Altimeter: 30.08
* Temperature: 26° c. 78.8°f.
* Wind from: 120° Speed 08 kn.
Dewpoint: 23° c.
Visibility: 6 Statute Miles.
Clouds: Scattered 1500 ft.
Clouds: Broken 2000 ft.
Clouds: Broken 25000 ft.
Clouds: Scattered 1500 ft.
Clouds: Broken 00 ft.
Conditions: Mist.

KNBG 221611Z 12008KT 6SM BR SCT015 BKN020 BKN250 26/23 A3008 RMK AO2 SCT015 V BKN T02560233 $


Wind From 120°
Speed 08 kn.

 
 
jpsmedia.com for Web Design worldairports.se 2019   terms of use